Time;durP1;ratioP1;P1;durP2;ratioP2;P2;SDS_P1;SDS_P2;PMS_P1;PMS_P2;Temp;Humidity;BMP_temperature;BMP_pressure;BME280_temperature;BME280_humidity;BME280_pressure;Samples;Min_cycle;Max_cycle;Signal;HPM_P1;HPM_P2
2023/04/09 00:03:05;;;;;;;9.70;6.50;;;;;;;9.32;73.80;100918.49;131368;1253;107464;-74
2023/04/09 00:06:12;;;;;;;9.70;7.30;;;;;;;9.34;73.78;100912.09;131140;1253;107591;-75
2023/04/09 00:09:19;;;;;;;10.00;7.00;;;;;;;9.36;73.67;100912.09;131365;1252;106299;-74
2023/04/09 00:12:25;;;;;;;10.50;7.20;;;;;;;9.39;73.69;100906.16;131402;1248;106740;-74
2023/04/09 00:15:30;;;;;;;10.20;7.30;;;;;;;9.41;73.75;100908.83;131164;1261;107589;-74
2023/04/09 00:18:36;;;;;;;10.70;7.40;;;;;;;9.40;73.87;100907.31;131444;1253;107264;-73
2023/04/09 00:21:41;;;;;;;11.60;8.30;;;;;;;9.38;73.90;100902.01;131283;1253;107513;-75
2023/04/09 00:24:46;;;;;;;10.10;7.20;;;;;;;9.36;73.83;100901.63;131384;1253;107529;-75
2023/04/09 00:27:52;;;;;;;9.80;7.30;;;;;;;9.35;73.71;100901.58;131210;1251;107546;-74
2023/04/09 00:30:57;;;;;;;9.60;6.50;;;;;;;9.33;74.01;100900.14;131364;1254;107473;-73
2023/04/09 00:34:03;;;;;;;9.30;6.00;;;;;;;9.31;74.10;100899.38;131234;1254;107354;-74
2023/04/09 00:37:08;;;;;;;8.80;6.50;;;;;;;9.30;74.16;100901.09;131134;1251;107492;-75
2023/04/09 00:40:14;;;;;;;8.60;6.40;;;;;;;9.29;74.33;100896.58;131148;1254;106561;-73
2023/04/09 00:43:20;;;;;;;37.50;15.10;;;;;;;9.30;74.26;100895.08;131226;1248;107564;-74
2023/04/09 00:46:26;;;;;;;30.60;14.70;;;;;;;9.28;74.25;100894.86;131410;1255;107689;-74
2023/04/09 00:49:31;;;;;;;26.40;13.20;;;;;;;9.29;74.39;100892.59;131112;1254;107553;-73
2023/04/09 00:52:37;;;;;;;22.80;11.80;;;;;;;9.30;74.36;100892.59;131093;1251;107222;-74
2023/04/09 00:55:43;;;;;;;27.40;13.70;;;;;;;9.29;74.53;100889.46;131193;1251;106786;-75
2023/04/09 00:58:48;;;;;;;17.60;9.10;;;;;;;9.28;74.73;100889.90;131138;1253;107496;-74
2023/04/09 01:01:54;;;;;;;19.00;9.30;;;;;;;9.26;74.50;100892.16;131126;1253;107246;-74
2023/04/09 01:05:00;;;;;;;19.90;10.50;;;;;;;9.27;74.57;100886.64;131346;1251;107492;-74
2023/04/09 01:08:15;;;;;;;74.70;33.70;;;;;;;9.30;74.67;100880.97;131212;1254;107556;-74
2023/04/09 01:11:37;;;;;;;80.20;34.90;;;;;;;9.33;74.61;100881.98;131146;1254;107517;-73
2023/04/09 01:14:45;;;;;;;;;;;;;;;9.31;74.58;100872.75;131045;1254;105641;-74
2023/04/09 01:17:59;;;;;;;36.00;18.10;;;;;;;9.29;74.79;100874.54;131335;1253;107429;-73
2023/04/09 01:21:09;;;;;;;25.90;14.60;;;;;;;9.27;74.83;100874.35;131214;1254;107516;-74
2023/04/09 01:24:30;;;;;;;19.30;12.40;;;;;;;9.26;74.76;100868.94;131089;1257;107490;-74
2023/04/09 01:27:44;;;;;;;16.20;10.80;;;;;;;9.24;75.02;100869.66;131114;1254;107472;-75
2023/04/09 01:30:53;;;;;;;12.70;8.90;;;;;;;9.20;74.90;100866.05;131066;1253;107389;-73
2023/04/09 01:34:00;;;;;;;13.60;8.30;;;;;;;9.18;75.05;100858.91;130967;1253;107668;-75
2023/04/09 01:37:08;;;;;;;15.40;10.00;;;;;;;9.18;75.21;100856.27;131103;1256;107410;-75
2023/04/09 01:40:14;;;;;;;12.80;9.80;;;;;;;9.19;75.47;100858.00;131141;1253;107535;-75
2023/04/09 01:43:21;;;;;;;14.70;10.40;;;;;;;9.12;75.51;100859.59;131216;1253;107506;-75
2023/04/09 01:46:27;;;;;;;14.50;10.00;;;;;;;9.09;75.58;100856.58;131450;1251;107494;-75
2023/04/09 01:49:33;;;;;;;12.90;9.60;;;;;;;9.12;75.64;100854.85;131298;1254;106232;-75
2023/04/09 01:52:39;;;;;;;13.00;9.60;;;;;;;9.14;75.63;100852.86;131343;1250;107578;-73
2023/04/09 01:55:45;;;;;;;12.50;9.60;;;;;;;9.15;75.72;100859.20;131196;1251;107444;-73
2023/04/09 01:58:51;;;;;;;11.50;8.00;;;;;;;9.14;75.62;100860.71;131213;1254;107662;-73
2023/04/09 02:02:05;;;;;;;11.70;8.20;;;;;;;9.12;75.65;100866.71;131285;1253;107541;-73
2023/04/09 02:05:15;;;;;;;12.90;9.50;;;;;;;9.10;75.76;100864.05;131334;1251;107522;-74
2023/04/09 02:08:23;;;;;;;14.30;9.90;;;;;;;9.11;75.84;100866.88;131361;1250;108624;-74
2023/04/09 02:11:33;;;;;;;14.50;9.80;;;;;;;9.05;75.95;100867.52;131168;1253;107610;-73
2023/04/09 02:14:40;;;;;;;12.80;9.80;;;;;;;9.01;75.96;100865.52;131363;1251;107556;-73
2023/04/09 02:17:46;;;;;;;13.80;9.60;;;;;;;9.00;75.88;100867.49;131432;1253;107439;-74
2023/04/09 02:20:52;;;;;;;13.10;9.70;;;;;;;8.99;76.04;100869.58;131438;1253;107512;-74
2023/04/09 02:23:57;;;;;;;12.50;9.00;;;;;;;9.01;76.34;100866.36;131443;1253;107452;-74
2023/04/09 02:27:03;;;;;;;11.60;7.90;;;;;;;9.02;76.10;100865.23;131407;1250;107622;-74
2023/04/09 02:30:10;;;;;;;9.80;7.20;;;;;;;9.04;76.29;100867.75;131296;1254;107511;-74
2023/04/09 02:33:16;;;;;;;10.70;8.20;;;;;;;9.06;76.16;100870.79;131386;1261;107560;-74
2023/04/09 02:36:21;;;;;;;11.30;9.20;;;;;;;9.09;76.07;100877.06;131302;1254;106559;-73
2023/04/09 02:39:27;;;;;;;11.90;9.10;;;;;;;9.06;76.45;100881.04;131291;1257;106811;-74
2023/04/09 02:42:32;;;;;;;11.60;9.10;;;;;;;8.99;76.45;100878.09;131357;1248;107505;-74
2023/04/09 02:45:38;;;;;;;11.60;8.90;;;;;;;9.01;76.50;100879.02;131389;1248;107711;-74
2023/04/09 02:48:43;;;;;;;11.80;8.90;;;;;;;9.04;76.64;100877.67;131365;1251;106527;-74
2023/04/09 02:51:49;;;;;;;13.00;8.80;;;;;;;9.05;76.44;100880.29;131420;1253;107432;-73
2023/04/09 02:54:54;;;;;;;11.40;7.80;;;;;;;9.02;76.50;100878.86;131285;1254;107442;-73
2023/04/09 02:58:00;;;;;;;11.00;7.80;;;;;;;9.02;76.53;100880.08;131371;1253;106794;-74
2023/04/09 03:01:05;;;;;;;12.30;8.70;;;;;;;8.99;76.48;100885.72;131469;1253;107523;-74
2023/04/09 03:04:11;;;;;;;12.70;9.20;;;;;;;8.95;76.80;100885.39;131334;1253;107506;-74
2023/04/09 03:07:16;;;;;;;12.50;9.30;;;;;;;8.89;77.13;100879.86;131543;1248;106523;-73
2023/04/09 03:10:21;;;;;;;12.80;9.40;;;;;;;8.85;77.13;100879.59;131302;1254;105648;-73
2023/04/09 03:13:28;;;;;;;13.30;9.60;;;;;;;8.77;77.29;100877.55;131443;1253;107454;-73
2023/04/09 03:16:34;;;;;;;12.60;9.50;;;;;;;8.69;77.52;100879.54;131163;1252;106346;-74
2023/04/09 03:19:39;;;;;;;12.80;9.50;;;;;;;8.61;78.04;100877.85;131275;1248;107547;-74
2023/04/09 03:22:45;;;;;;;12.30;8.80;;;;;;;8.51;78.06;100877.74;131415;1251;106786;-74
2023/04/09 03:26:04;;;;;;;11.90;8.20;;;;;;;8.46;78.20;100879.95;131408;1252;107340;-73
2023/04/09 03:29:13;;;;;;;16.40;10.60;;;;;;;8.46;78.26;100878.70;131166;1248;107533;-74
2023/04/09 03:32:18;;;;;;;14.80;10.00;;;;;;;8.46;78.39;100875.70;131268;1253;107558;-75
2023/04/09 03:35:24;;;;;;;12.10;9.10;;;;;;;8.47;78.40;100876.64;131275;1257;107590;-74
2023/04/09 03:38:34;;;;;;;15.30;11.30;;;;;;;8.45;79.08;100877.91;131394;1253;108666;-74
2023/04/09 03:41:42;;;;;;;15.50;10.50;;;;;;;8.39;78.79;100873.39;131412;1253;107452;-74
2023/04/09 03:44:54;;;;;;;18.30;12.50;;;;;;;8.34;79.18;100873.76;131462;1253;106453;-73
2023/04/09 03:48:13;;;;;;;15.70;10.90;;;;;;;8.30;79.06;100868.12;131482;1255;107593;-74
2023/04/09 03:51:19;;;;;;;12.70;9.20;;;;;;;8.31;78.86;100869.29;131447;1248;106685;-74
2023/04/09 03:54:31;;;;;;;16.90;11.50;;;;;;;8.33;78.82;100869.41;131304;1253;107461;-73
2023/04/09 03:57:38;;;;;;;14.40;10.70;;;;;;;8.36;79.46;100869.61;131380;1249;107408;-74
2023/04/09 04:00:47;;;;;;;16.70;12.10;;;;;;;8.38;79.25;100876.31;131414;1253;107466;-74
2023/04/09 04:04:08;;;;;;;16.80;12.20;;;;;;;8.39;79.66;100873.74;131158;1253;107464;-73
2023/04/09 04:07:21;;;;;;;42.10;26.90;;;;;;;8.34;80.17;100869.36;131425;1260;107563;-74
2023/04/09 04:10:33;;;;;;;33.90;21.10;;;;;;;8.26;80.61;100867.52;131243;1254;107433;-75
2023/04/09 04:13:39;;;;;;;54.30;31.50;;;;;;;8.19;80.73;100863.27;131154;1253;107449;-75
2023/04/09 04:16:46;;;;;;;27.10;17.90;;;;;;;8.16;80.98;100864.61;131211;1257;107444;-74
2023/04/09 04:19:55;;;;;;;20.70;14.60;;;;;;;8.15;81.02;100868.42;131502;1250;107425;-74
2023/04/09 04:23:01;;;;;;;27.40;21.90;;;;;;;8.17;80.53;100873.20;131350;1254;107456;-74
2023/04/09 04:26:10;;;;;;;21.20;15.70;;;;;;;8.20;80.26;100874.38;131410;1250;106083;-75
2023/04/09 04:29:15;;;;;;;24.80;18.90;;;;;;;8.23;80.28;100875.04;131372;1254;107517;-73
2023/04/09 04:32:31;;;;;;;23.10;16.40;;;;;;;8.28;80.10;100870.54;131473;1253;107502;-73
2023/04/09 04:35:39;;;;;;;41.90;26.20;;;;;;;8.30;80.33;100874.48;131181;1251;107359;-74
2023/04/09 04:38:46;;;;;;;26.60;18.30;;;;;;;8.33;80.13;100870.33;131535;1248;107456;-74
2023/04/09 04:42:06;;;;;;;77.80;57.20;;;;;;;8.44;80.15;100872.84;131282;1253;109018;-75
2023/04/09 04:45:12;;;;;;;27.90;20.40;;;;;;;8.55;80.28;100873.16;131298;1250;107213;-74
2023/04/09 04:48:41;;;;;;;21.10;15.40;;;;;;;8.56;80.31;100876.51;131534;1253;107530;-73
2023/04/09 04:51:46;;;;;;;21.40;15.30;;;;;;;8.52;80.18;100874.82;131500;1250;107588;-73
2023/04/09 04:54:53;;;;;;;20.50;14.50;;;;;;;8.56;80.04;100877.35;131570;1253;107832;-73
2023/04/09 04:58:01;;;;;;;17.70;12.70;;;;;;;8.62;80.30;100876.65;131417;1253;106532;-74
2023/04/09 05:01:08;;;;;;;17.00;11.70;;;;;;;8.62;80.23;100873.50;131474;1248;107427;-74
2023/04/09 05:04:15;;;;;;;23.70;16.70;;;;;;;8.61;80.40;100873.06;131548;1252;107460;-75
2023/04/09 05:07:20;;;;;;;18.90;14.10;;;;;;;8.61;80.42;100874.96;131601;1251;107507;-75
2023/04/09 05:10:32;;;;;;;20.50;14.90;;;;;;;8.64;80.35;100874.27;131253;1253;108711;-74
2023/04/09 05:13:38;;;;;;;20.20;14.90;;;;;;;8.72;80.32;100874.10;131382;1253;107497;-74
2023/04/09 05:16:47;;;;;;;21.40;16.30;;;;;;;8.75;80.34;100873.39;131452;1253;107476;-73
2023/04/09 05:19:54;;;;;;;20.70;15.60;;;;;;;8.77;80.38;100876.23;131383;1254;107634;-74
2023/04/09 05:23:05;;;;;;;20.40;14.00;;;;;;;8.86;80.22;100873.17;131399;1253;107491;-75
2023/04/09 05:26:14;;;;;;;19.00;13.80;;;;;;;8.95;80.32;100877.54;131173;1251;107446;-76
2023/04/09 05:29:30;;;;;;;25.90;18.70;;;;;;;8.98;80.79;100880.45;131361;1253;108575;-73
2023/04/09 05:32:38;;;;;;;25.20;19.00;;;;;;;8.99;80.84;100882.01;131381;1253;107428;-73
2023/04/09 05:35:43;;;;;;;26.60;17.80;;;;;;;9.03;81.01;100885.20;131495;1253;107461;-74
2023/04/09 05:38:49;;;;;;;26.90;18.40;;;;;;;9.09;81.30;100882.58;131440;1250;107501;-73
2023/04/09 05:41:55;;;;;;;24.90;17.40;;;;;;;9.16;80.86;100884.29;131327;1253;106383;-73
2023/04/09 05:45:00;;;;;;;24.10;17.20;;;;;;;9.26;80.84;100885.81;131464;1252;106561;-73
2023/04/09 05:48:07;;;;;;;23.10;15.20;;;;;;;9.31;80.68;100890.03;131369;1253;107420;-73
2023/04/09 05:51:14;;;;;;;21.30;14.20;;;;;;;9.35;80.89;100889.95;131433;1248;107387;-73
2023/04/09 05:54:19;;;;;;;24.10;16.60;;;;;;;9.41;80.61;100889.49;131378;1248;107473;-75
2023/04/09 05:57:26;;;;;;;25.00;17.40;;;;;;;9.47;80.75;100884.02;131514;1253;107506;-75
2023/04/09 06:00:37;;;;;;;25.60;18.80;;;;;;;9.57;80.64;100880.48;131365;1253;107532;-75
2023/04/09 06:03:43;;;;;;;28.70;19.50;;;;;;;9.65;80.65;100877.70;131450;1254;107316;-75
2023/04/09 06:06:48;;;;;;;26.50;18.40;;;;;;;9.63;80.30;100877.70;131390;1252;105892;-72
2023/04/09 06:09:54;;;;;;;27.00;20.40;;;;;;;9.59;80.56;100878.00;131332;1253;107551;-74
2023/04/09 06:13:00;;;;;;;25.00;16.70;;;;;;;9.56;80.96;100880.80;131348;1253;107669;-75
2023/04/09 06:16:07;;;;;;;21.20;14.20;;;;;;;9.57;80.70;100887.06;131156;1253;105761;-73
2023/04/09 06:19:15;;;;;;;22.10;16.20;;;;;;;9.70;80.48;100891.46;131418;1253;107702;-73
2023/04/09 06:22:21;;;;;;;25.00;17.60;;;;;;;9.85;79.98;100895.38;131378;1250;107235;-73
2023/04/09 06:25:26;;;;;;;27.60;19.30;;;;;;;9.91;80.23;100896.05;131452;1263;107402;-72
2023/04/09 06:28:32;;;;;;;28.40;19.60;;;;;;;9.93;80.22;100899.83;131401;1253;107501;-73
2023/04/09 06:31:38;;;;;;;26.10;19.30;;;;;;;9.99;80.02;100902.53;131418;1253;107494;-75
2023/04/09 06:34:43;;;;;;;29.50;20.10;;;;;;;10.06;79.82;100904.73;131427;1253;108476;-72
2023/04/09 06:37:49;;;;;;;28.50;19.70;;;;;;;10.07;80.05;100907.99;131379;1255;107610;-73
2023/04/09 06:40:55;;;;;;;26.60;18.10;;;;;;;10.04;79.83;100915.70;131360;1252;107469;-74
2023/04/09 06:44:01;;;;;;;23.10;16.40;;;;;;;10.08;79.68;100914.48;131389;1261;107278;-75
2023/04/09 06:47:07;;;;;;;24.70;17.80;;;;;;;10.22;80.04;100912.40;131436;1251;107521;-74
2023/04/09 06:50:13;;;;;;;25.70;18.50;;;;;;;10.35;79.95;100909.34;131426;1253;106851;-74
2023/04/09 06:53:18;;;;;;;23.90;18.30;;;;;;;10.58;79.71;100909.94;131163;1253;107499;-75
2023/04/09 06:56:24;;;;;;;26.10;19.00;;;;;;;10.87;79.84;100908.07;131226;1253;107610;-75
2023/04/09 06:59:29;;;;;;;26.50;19.10;;;;;;;11.09;79.35;100914.95;131278;1264;106349;-75
2023/04/09 07:02:35;;;;;;;25.30;18.30;;;;;;;11.24;78.76;100930.03;131761;1252;107446;-74
2023/04/09 07:05:41;;;;;;;27.20;19.50;;;;;;;11.37;78.99;100931.65;131231;1254;107139;-73
2023/04/09 07:08:47;;;;;;;26.00;19.50;;;;;;;11.55;78.61;100927.70;131270;1253;107605;-74
2023/04/09 07:11:52;;;;;;;27.00;19.90;;;;;;;11.73;78.23;100926.17;131376;1248;107481;-74
2023/04/09 07:15:00;;;;;;;36.60;28.60;;;;;;;11.72;77.44;100927.10;131308;1251;107505;-73
2023/04/09 07:18:42;;;;;;;27.60;20.90;;;;;;;11.80;78.30;100930.66;131140;1262;107453;-75
2023/04/09 07:21:47;;;;;;;32.00;23.40;;;;;;;11.96;78.11;100934.21;131573;1252;108263;-73
2023/04/09 07:24:53;;;;;;;29.40;20.40;;;;;;;12.11;78.33;100930.26;131922;1252;107394;-74
2023/04/09 07:27:59;;;;;;;28.60;21.10;;;;;;;12.31;78.09;100931.61;131603;1253;106844;-76
2023/04/09 07:31:05;;;;;;;28.00;21.20;;;;;;;12.52;78.09;100930.41;131366;1253;107641;-73
2023/04/09 07:34:10;;;;;;;27.90;21.70;;;;;;;12.70;76.63;100926.89;131371;1253;108294;-73
2023/04/09 07:37:16;;;;;;;32.20;24.80;;;;;;;12.72;76.07;100927.10;131608;1250;107332;-74
2023/04/09 07:40:21;;;;;;;27.60;21.10;;;;;;;12.72;76.82;100932.20;131446;1253;107597;-73
2023/04/09 07:43:27;;;;;;;27.00;20.30;;;;;;;12.86;76.88;100928.92;131318;1253;107244;-73
2023/04/09 07:46:32;;;;;;;26.90;21.20;;;;;;;13.05;76.66;100928.29;131335;1253;107599;-73
2023/04/09 07:49:38;;;;;;;25.70;20.40;;;;;;;13.20;76.11;100927.69;131470;1252;108687;-76
2023/04/09 07:52:44;;;;;;;20.10;16.40;;;;;;;13.33;75.94;100927.16;131520;1251;107533;-74
2023/04/09 07:55:51;;;;;;;20.30;16.10;;;;;;;13.48;75.38;100920.41;131474;1253;108107;-73
2023/04/09 07:58:57;;;;;;;22.50;15.70;;;;;;;13.61;74.99;100925.98;131541;1250;107458;-74
2023/04/09 08:02:02;;;;;;;17.10;13.60;;;;;;;13.77;75.33;100930.02;131563;1253;107400;-74
2023/04/09 08:05:09;;;;;;;17.20;13.70;;;;;;;13.97;74.64;100921.83;131833;1249;107221;-75
2023/04/09 08:08:14;;;;;;;14.90;11.60;;;;;;;14.11;74.17;100917.67;131695;1253;107539;-73
2023/04/09 08:11:24;;;;;;;15.20;11.90;;;;;;;14.25;74.19;100920.59;131192;1253;105707;-73
2023/04/09 08:14:29;;;;;;;15.30;11.70;;;;;;;14.38;72.58;100922.66;131226;1253;105853;-73
2023/04/09 08:17:36;;;;;;;16.80;12.80;;;;;;;14.43;73.26;100918.47;131492;1253;106802;-73
2023/04/09 08:20:43;;;;;;;14.20;11.40;;;;;;;14.50;72.99;100921.36;131432;1248;107285;-73
2023/04/09 08:23:49;;;;;;;14.10;11.10;;;;;;;14.51;71.68;100925.56;131330;1253;107268;-73
2023/04/09 08:26:55;;;;;;;15.20;11.10;;;;;;;14.51;71.38;100926.55;131320;1253;108098;-73
2023/04/09 08:30:01;;;;;;;15.60;11.20;;;;;;;14.52;69.91;100924.36;131692;1253;107245;-74
2023/04/09 08:33:06;;;;;;;16.40;12.40;;;;;;;14.51;71.46;100925.67;131658;1253;108622;-75
2023/04/09 08:36:12;;;;;;;14.60;11.50;;;;;;;14.63;70.75;100927.55;131595;1251;107619;-74
2023/04/09 08:39:19;;;;;;;13.40;10.70;;;;;;;14.64;71.06;100927.05;131267;1250;108057;-74
2023/04/09 08:42:26;;;;;;;14.70;11.10;;;;;;;14.65;69.15;100919.60;131733;1253;107864;-73
2023/04/09 08:45:33;;;;;;;13.20;10.10;;;;;;;14.60;66.94;100916.59;131285;1253;107633;-74
2023/04/09 08:48:46;;;;;;;11.10;9.10;;;;;;;14.46;67.40;100921.29;131458;1250;107661;-75
2023/04/09 08:51:51;;;;;;;11.10;9.00;;;;;;;14.52;68.88;100926.59;131545;1250;107267;-75
2023/04/09 08:54:57;;;;;;;13.20;10.00;;;;;;;14.69;68.04;100922.36;131656;1253;107378;-77
2023/04/09 08:58:07;;;;;;;14.40;11.10;;;;;;;14.74;66.38;100920.42;131596;1253;107560;-76
2023/04/09 09:01:22;;;;;;;12.20;9.60;;;;;;;14.75;68.07;100915.30;131173;1253;107515;-75
2023/04/09 09:04:46;;;;;;;13.00;10.70;;;;;;;14.86;67.55;100919.23;131198;1253;105949;-74
2023/04/09 09:07:57;;;;;;;13.00;10.30;;;;;;;14.89;67.89;100921.75;131428;1253;108182;-74
2023/04/09 09:11:02;;;;;;;12.90;10.70;;;;;;;14.96;68.29;100920.45;131881;1250;107255;-74
2023/04/09 09:14:09;;;;;;;22.30;19.60;;;;;;;15.02;68.21;100919.59;131830;1251;107505;-74
2023/04/09 09:17:15;;;;;;;14.80;12.60;;;;;;;15.08;67.91;100925.10;131671;1250;107326;-75
2023/04/09 09:20:22;;;;;;;16.30;13.30;;;;;;;15.09;67.00;100923.83;131750;1251;108735;-73
2023/04/09 09:23:37;;;;;;;16.80;12.70;;;;;;;15.06;67.35;100928.47;131463;1253;107403;-73
2023/04/09 09:26:42;;;;;;;19.40;14.90;;;;;;;15.12;67.66;100927.20;131535;1251;107491;-76
2023/04/09 09:29:48;;;;;;;21.10;16.40;;;;;;;15.09;66.32;100929.92;131299;1253;107246;-76
2023/04/09 09:33:04;;;;;;;22.80;18.20;;;;;;;14.94;66.32;100929.08;131329;1256;108408;-75
2023/04/09 09:36:10;;;;;;;29.30;21.10;;;;;;;14.75;66.54;100932.89;131804;1249;106052;-76
2023/04/09 09:39:16;;;;;;;27.90;18.70;;;;;;;14.61;67.05;100934.20;131640;1253;107430;-73
2023/04/09 09:42:22;;;;;;;25.60;20.20;;;;;;;14.53;66.93;100931.19;132942;1251;107746;-74
2023/04/09 09:45:29;;;;;;;22.80;16.80;;;;;;;14.58;66.91;100931.52;133358;1248;107509;-74
2023/04/09 09:48:35;;;;;;;25.20;19.50;;;;;;;14.63;66.56;100931.48;131906;1250;107376;-74
2023/04/09 09:51:41;;;;;;;20.20;16.10;;;;;;;14.62;67.03;100932.82;131570;1251;107389;-74
2023/04/09 09:54:52;;;;;;;19.00;15.60;;;;;;;14.75;67.51;100931.64;131965;1253;107376;-73
2023/04/09 09:57:58;;;;;;;21.30;17.10;;;;;;;14.89;67.21;100932.48;131523;1253;107325;-74
2023/04/09 10:01:07;;;;;;;20.60;15.10;;;;;;;14.94;66.89;100933.72;132343;1248;107569;-73
2023/04/09 10:04:15;;;;;;;19.30;15.10;;;;;;;14.95;66.39;100931.45;131292;1253;107223;-73
2023/04/09 10:07:22;;;;;;;18.40;14.50;;;;;;;14.99;66.32;100929.09;131421;1254;107404;-75
2023/04/09 10:10:29;;;;;;;18.00;14.50;;;;;;;14.80;63.43;100930.52;131437;1252;106684;-73
2023/04/09 10:13:38;;;;;;;19.40;15.10;;;;;;;14.59;63.99;100930.28;131539;1253;107220;-73
2023/04/09 10:16:44;;;;;;;15.40;12.80;;;;;;;14.42;64.36;100931.14;131795;1249;107335;-73
2023/04/09 10:20:00;;;;;;;16.00;13.00;;;;;;;14.44;65.37;100926.95;131616;1253;106539;-73
2023/04/09 10:23:15;;;;;;;14.70;11.70;;;;;;;14.50;65.56;100925.29;131547;1249;107484;-73
2023/04/09 10:26:26;;;;;;;15.50;11.70;;;;;;;14.59;64.55;100927.44;131314;1251;107483;-73
2023/04/09 10:29:31;;;;;;;13.80;11.80;;;;;;;14.46;62.98;100929.80;131196;1253;106423;-73
2023/04/09 10:32:38;;;;;;;14.10;11.40;;;;;;;14.35;63.87;100930.81;131155;1253;107247;-73
2023/04/09 10:35:46;;;;;;;14.10;11.30;;;;;;;14.38;64.77;100930.68;131116;1256;107537;-73
2023/04/09 10:38:52;;;;;;;13.10;11.10;;;;;;;14.41;64.22;100929.26;131184;1250;107228;-72
2023/04/09 10:41:58;;;;;;;12.60;10.20;;;;;;;14.45;64.37;100932.09;131193;1261;107489;-72
2023/04/09 10:45:10;;;;;;;12.80;10.30;;;;;;;14.53;64.62;100929.64;131188;1253;107508;-72
2023/04/09 10:48:19;;;;;;;12.30;10.40;;;;;;;14.64;64.66;100929.23;131208;1253;107248;-74
2023/04/09 10:51:26;;;;;;;12.60;9.90;;;;;;;14.70;64.79;100931.27;131220;1256;107553;-73
2023/04/09 10:54:46;;;;;;;12.80;9.90;;;;;;;14.71;63.21;100928.64;131313;1252;107518;-73
2023/04/09 10:57:52;;;;;;;10.90;9.00;;;;;;;14.69;64.37;100926.30;131407;1253;107241;-72
2023/04/09 11:01:01;;;;;;;13.30;10.50;;;;;;;14.80;63.71;100923.70;131399;1253;106520;-72
2023/04/09 11:04:16;;;;;;;12.60;9.70;;;;;;;14.82;63.99;100924.68;131109;1253;106766;-72
2023/04/09 11:07:24;;;;;;;13.90;10.40;;;;;;;14.89;63.50;100923.35;131367;1255;107233;-72
2023/04/09 11:10:29;;;;;;;12.30;9.90;;;;;;;14.84;63.36;100927.64;131315;1253;105786;-73
2023/04/09 11:13:35;;;;;;;11.70;9.50;;;;;;;14.76;62.43;100927.63;131287;1253;107408;-73
2023/04/09 11:16:41;;;;;;;11.80;9.90;;;;;;;14.71;63.14;100927.20;131386;1264;107351;-73
2023/04/09 11:19:47;;;;;;;11.30;10.00;;;;;;;14.72;62.95;100926.45;131205;1251;109304;-72
2023/04/09 11:22:54;;;;;;;11.20;9.60;;;;;;;14.78;63.49;100925.41;131177;1253;107225;-73
2023/04/09 11:26:00;;;;;;;11.20;9.50;;;;;;;14.91;62.91;100925.27;131323;1253;107417;-73
2023/04/09 11:29:08;;;;;;;9.70;8.60;;;;;;;15.08;63.40;100924.87;131106;1251;107207;-73
2023/04/09 11:32:14;;;;;;;11.30;8.50;;;;;;;15.29;63.36;100924.37;131510;1253;107633;-72
2023/04/09 11:35:20;;;;;;;14.80;11.40;;;;;;;15.42;61.62;100923.55;131415;1253;107537;-73
2023/04/09 11:38:26;;;;;;;12.70;10.40;;;;;;;15.29;61.70;100923.87;131200;1253;107559;-73
2023/04/09 11:41:38;;;;;;;14.10;11.40;;;;;;;15.32;62.08;100923.23;131305;1253;107432;-73
2023/04/09 11:44:45;;;;;;;15.30;12.40;;;;;;;15.20;62.95;100924.39;131285;1253;107501;-74
2023/04/09 11:47:52;;;;;;;13.90;11.70;;;;;;;15.17;63.04;100925.38;131328;1261;107437;-73
2023/04/09 11:50:58;;;;;;;15.00;12.90;;;;;;;15.17;63.21;100923.20;131275;1251;106275;-74
2023/04/09 11:54:04;;;;;;;14.20;12.10;;;;;;;15.10;62.48;100925.88;131488;1254;105808;-74
2023/04/09 11:57:10;;;;;;;15.40;12.60;;;;;;;15.02;63.16;100923.38;131284;1254;107494;-75
2023/04/09 12:00:17;;;;;;;15.40;12.00;;;;;;;14.87;62.14;100923.35;131465;1251;107479;-74
2023/04/09 12:03:31;;;;;;;14.90;12.40;;;;;;;14.77;62.93;100921.79;131256;1251;107501;-75
2023/04/09 12:06:42;;;;;;;13.60;11.90;;;;;;;14.82;62.78;100913.53;131188;1258;107313;-74
2023/04/09 12:09:50;;;;;;;14.90;11.30;;;;;;;14.99;63.05;100912.79;131262;1254;107498;-74
2023/04/09 12:13:00;;;;;;;13.90;11.70;;;;;;;15.09;61.45;100916.54;131333;1254;107442;-74
2023/04/09 12:16:06;;;;;;;13.50;11.10;;;;;;;15.15;62.67;100915.56;131156;1252;107460;-73
2023/04/09 12:19:13;;;;;;;12.70;11.10;;;;;;;15.25;61.40;100917.45;131172;1261;107503;-74
2023/04/09 12:22:18;;;;;;;12.20;10.30;;;;;;;15.12;60.43;100918.15;131529;1253;107538;-74
2023/04/09 12:25:24;;;;;;;12.00;10.10;;;;;;;15.02;60.56;100919.11;131508;1253;108795;-74
2023/04/09 12:28:30;;;;;;;10.40;9.20;;;;;;;14.89;60.91;100916.50;131285;1255;107502;-74
2023/04/09 12:31:35;;;;;;;12.20;9.90;;;;;;;14.81;60.58;100920.60;131504;1251;232609;-75
2023/04/09 12:34:41;;;;;;;12.00;9.90;;;;;;;14.62;60.67;100924.21;131185;1253;105933;-74
2023/04/09 12:37:47;;;;;;;12.50;10.30;;;;;;;14.46;61.53;100919.74;131457;1253;107539;-76
2023/04/09 12:40:52;;;;;;;12.90;10.40;;;;;;;14.34;61.01;100916.02;131345;1247;107588;-74
2023/04/09 12:43:58;;;;;;;13.00;10.20;;;;;;;14.25;61.54;100917.95;131514;1248;106529;-74
2023/04/09 12:47:03;;;;;;;11.50;10.00;;;;;;;14.23;61.46;100918.88;131368;1253;107476;-74
2023/04/09 12:50:11;;;;;;;11.20;9.10;;;;;;;14.27;62.01;100918.52;131190;1261;107475;-74
2023/04/09 12:53:17;;;;;;;11.50;8.90;;;;;;;14.41;61.83;100915.86;131310;1253;108608;-74
2023/04/09 12:56:23;;;;;;;11.50;9.20;;;;;;;14.55;61.60;100919.59;131534;1253;106664;-74
2023/04/09 12:59:29;;;;;;;11.00;9.30;;;;;;;14.65;61.06;100916.61;132191;1253;106665;-74
2023/04/09 13:02:35;;;;;;;10.40;9.00;;;;;;;14.75;61.29;100914.04;132218;1253;106656;-75
2023/04/09 13:05:40;;;;;;;12.30;10.00;;;;;;;14.89;61.13;100910.09;131290;1250;108542;-74
2023/04/09 13:08:46;;;;;;;11.10;9.30;;;;;;;14.97;60.33;100908.81;131445;1253;107531;-74
2023/04/09 13:11:51;;;;;;;11.00;9.30;;;;;;;15.04;61.28;100903.77;131576;1253;107501;-74
2023/04/09 13:14:57;;;;;;;11.30;9.50;;;;;;;15.20;60.15;100906.21;131248;1253;107562;-74
2023/04/09 13:18:03;;;;;;;12.40;9.80;;;;;;;15.16;60.37;100905.92;131941;1250;106400;-75
2023/04/09 13:21:09;;;;;;;10.70;8.60;;;;;;;15.20;60.89;100903.19;131389;1258;107467;-76
2023/04/09 13:24:14;;;;;;;11.70;9.90;;;;;;;15.31;60.89;100902.80;131552;1260;107531;-73
2023/04/09 13:27:20;;;;;;;12.70;8.90;;;;;;;15.35;59.67;100899.20;131399;1261;107536;-74
2023/04/09 13:30:26;;;;;;;10.30;8.40;;;;;;;15.24;60.39;100901.23;131163;1254;108124;-75
2023/04/09 13:33:31;;;;;;;10.80;8.80;;;;;;;15.18;60.46;100900.68;131174;1261;107539;-74
2023/04/09 13:36:37;;;;;;;10.30;8.60;;;;;;;15.13;60.02;100902.83;131454;1261;107529;-74
2023/04/09 13:39:42;;;;;;;9.60;8.40;;;;;;;14.95;60.35;100899.92;131341;1253;107456;-74
2023/04/09 13:42:48;;;;;;;10.20;7.70;;;;;;;14.82;60.48;100896.27;131258;1254;107500;-74
2023/04/09 13:45:53;;;;;;;10.20;8.20;;;;;;;14.76;60.60;100891.96;131268;1253;107531;-74
2023/04/09 13:48:59;;;;;;;8.50;7.40;;;;;;;14.66;60.31;100894.23;131176;1253;107422;-74
2023/04/09 13:52:05;;;;;;;10.10;8.10;;;;;;;14.54;60.13;100891.92;131201;1253;106674;-75
2023/04/09 13:55:11;;;;;;;10.00;8.10;;;;;;;14.46;60.46;100893.83;131367;1253;107576;-76
2023/04/09 13:58:17;;;;;;;10.90;8.10;;;;;;;14.44;60.87;100890.13;131292;1257;107500;-74
2023/04/09 14:01:22;;;;;;;10.50;8.20;;;;;;;14.43;60.60;100889.85;131511;1251;108655;-74
2023/04/09 14:04:28;;;;;;;9.50;7.60;;;;;;;14.40;60.67;100886.42;131271;1254;107464;-74